^^
Station Historical Data
Daily Summary for March 15, 2018 Units:  English    Metric   Both
« Previous Day
Next Day »
Daily Weekly Monthly Yearly Custom
  High: Low: Average:
Temperature: TemperatureF °F 48.1 °F 60.6 °F
Dew Point: DewpointF °F 23.3 °F 32.6 °F
Humidity: Humidity% 25% 35%
Wind Speed: WindSpeedMPHmph 2.3mph 7.3mph
Wind Gust: WindSpeedGustMPHmph - -
Wind- - South
Pressure: PressureIn in 29.64 in -
Precipitation: 0.00 in    
Historical Graphs
 
 
Tabular Data for March 15, 2018
Time Temperature Dew Point Pressure Wind Wind Speed Wind Gust Humidity Rainfall Rate (Hourly)
TemperatureF °F DewpointF °F PressureIn in Calm     Humidity% HourlyPrecipIn in
00:03 51.9 °F 23.7 °F 29.90 in ESE 8.1 mph 8.1 mph 33% 0.00 in
00:08 51.7 °F 23.5 °F 29.89 in SSW 6.0 mph 6.0 mph 33% 0.00 in
00:13 51.5 °F 23.3 °F 29.89 in South 6.9 mph 6.9 mph 33% 0.00 in
00:18 51.4 °F 23.9 °F 29.89 in SSW 10.4 mph 10.4 mph 34% 0.00 in
00:24 51.2 °F 23.8 °F 29.89 in SW 5.8 mph 5.8 mph 34% 0.00 in
00:29 50.9 °F 23.5 °F 29.89 in SW 6.9 mph 6.9 mph 34% 0.00 in
00:34 50.7 °F 24.0 °F 29.89 in SW 9.2 mph 9.2 mph 35% 0.00 in
00:40 50.6 °F 23.9 °F 29.89 in South 8.1 mph 8.1 mph 35% 0.00 in
00:45 50.5 °F 23.8 °F 29.88 in SSW 10.4 mph 10.4 mph 35% 0.00 in
00:50 50.5 °F 23.8 °F 29.88 in South 9.2 mph 9.2 mph 35% 0.00 in
00:55 50.5 °F 23.8 °F 29.88 in South 6.9 mph 6.9 mph 35% 0.00 in
01:00 50.4 °F 23.7 °F 29.88 in South 7.0 mph 7.0 mph 35% 0.00 in
01:06 50.5 °F 23.8 °F 29.88 in South 5.8 mph 5.8 mph 35% 0.00 in
01:11 50.4 °F 23.7 °F 29.87 in South 5.8 mph 5.8 mph 35% 0.00 in
01:17 50.4 °F 23.7 °F 29.87 in South 10.4 mph 10.4 mph 35% 0.00 in
01:22 50.5 °F 23.8 °F 29.87 in South 6.9 mph 6.9 mph 35% 0.00 in
01:27 50.4 °F 23.7 °F 29.87 in SW 4.6 mph 4.6 mph 35% 0.00 in
01:32 50.3 °F 24.3 °F 29.87 in SSW 5.8 mph 5.8 mph 36% 0.00 in
01:37 50.5 °F 23.8 °F 29.86 in SW 4.6 mph 4.6 mph 35% 0.00 in
01:43 50.6 °F 23.9 °F 29.86 in SW 9.2 mph 9.2 mph 35% 0.00 in
01:48 50.5 °F 24.5 °F 29.86 in South 11.5 mph 11.5 mph 36% 0.00 in
01:53 50.5 °F 24.5 °F 29.86 in SSW 8.0 mph 8.0 mph 36% 0.00 in
01:58 50.3 °F 24.3 °F 29.86 in South 6.9 mph 6.9 mph 36% 0.00 in
02:03 50.3 °F 24.3 °F 29.86 in SSE 6.9 mph 6.9 mph 36% 0.00 in
02:08 50.4 °F 24.4 °F 29.86 in SSW 6.9 mph 6.9 mph 36% 0.00 in
02:13 50.4 °F 24.4 °F 29.87 in SSW 9.2 mph 9.2 mph 36% 0.00 in
02:18 50.2 °F 24.9 °F 29.86 in SSW 5.0 mph 5.0 mph 37% 0.00 in
02:23 50.0 °F 24.7 °F 29.86 in South 4.6 mph 4.6 mph 37% 0.00 in
02:28 49.9 °F 24.6 °F 29.86 in SW 11.5 mph 11.5 mph 37% 0.00 in
02:34 49.7 °F 25.1 °F 29.87 in SW 9.2 mph 9.2 mph 38% 0.00 in
02:39 49.4 °F 24.8 °F 29.86 in South 5.8 mph 5.8 mph 38% 0.00 in
02:44 49.2 °F 24.6 °F 29.86 in SSW 5.8 mph 5.8 mph 38% 0.00 in
02:49 49.1 °F 24.6 °F 29.86 in SW 4.6 mph 4.6 mph 38% 0.00 in
02:55 49.1 °F 25.2 °F 29.86 in WSW 3.5 mph 3.5 mph 39% 0.00 in
03:00 49.0 °F 25.1 °F 29.86 in SSW 2.3 mph 2.3 mph 39% 0.00 in
03:05 49.0 °F 25.1 °F 29.86 in SSW 4.6 mph 4.6 mph 39% 0.00 in
03:10 49.1 °F 25.2 °F 29.86 in SSW 4.0 mph 4.0 mph 39% 0.00 in
03:15 49.0 °F 25.1 °F 29.86 in SSW 3.5 mph 3.5 mph 39% 0.00 in
03:20 48.9 °F 25.6 °F 29.85 in South 4.6 mph 4.6 mph 40% 0.00 in
03:25 48.9 °F 25.6 °F 29.85 in SSW 3.5 mph 3.9 mph 40% 0.00 in
03:31 49.0 °F 25.7 °F 29.85 in SSW 3.5 mph 3.5 mph 40% 0.00 in
03:36 48.9 °F 25.6 °F 29.85 in SW 9.2 mph 9.2 mph 40% 0.00 in
03:41 48.9 °F 25.6 °F 29.85 in South 4.6 mph 4.6 mph 40% 0.00 in
03:46 49.0 °F 25.7 °F 29.84 in SSW 5.0 mph 5.0 mph 40% 0.00 in
03:51 48.9 °F 25.6 °F 29.84 in South 6.9 mph 6.9 mph 40% 0.00 in
03:56 48.8 °F 25.5 °F 29.84 in SSW 4.0 mph 4.0 mph 40% 0.00 in
04:01 48.8 °F 26.1 °F 29.84 in SSE 3.5 mph 3.5 mph 41% 0.00 in
04:06 48.7 °F 26.0 °F 29.84 in WSW 4.6 mph 4.6 mph 41% 0.00 in
04:11 48.7 °F 26.0 °F 29.84 in SSW 4.6 mph 4.6 mph 41% 0.00 in
04:16 48.7 °F 26.0 °F 29.83 in SSW 3.5 mph 3.5 mph 41% 0.00 in
04:22 48.6 °F 25.9 °F 29.83 in SSW 3.5 mph 3.5 mph 41% 0.00 in
04:27 48.5 °F 25.8 °F 29.83 in SSW 4.6 mph 4.6 mph 41% 0.00 in
04:32 48.5 °F 26.4 °F 29.83 in SSE 5.8 mph 5.8 mph 42% 0.00 in
04:37 48.5 °F 26.4 °F 29.83 in SSW 4.6 mph 4.6 mph 42% 0.00 in
04:42 48.6 °F 26.5 °F 29.83 in South 6.0 mph 6.0 mph 42% 0.00 in
04:47 48.6 °F 26.5 °F 29.83 in South 5.0 mph 5.0 mph 42% 0.00 in
04:53 48.5 °F 26.4 °F 29.83 in South 5.8 mph 5.8 mph 42% 0.00 in
04:58 48.3 °F 26.2 °F 29.82 in SSW 4.6 mph 4.6 mph 42% 0.00 in
05:03 48.1 °F 26.1 °F 29.82 in SSW 3.5 mph 3.5 mph 42% 0.00 in
05:08 48.1 °F 26.1 °F 29.82 in South 5.8 mph 5.8 mph 42% 0.00 in
05:13 48.1 °F 26.6 °F 29.82 in South 3.5 mph 3.5 mph 43% 0.00 in
05:18 48.1 °F 26.6 °F 29.82 in SSW 6.0 mph 6.0 mph 43% 0.00 in
05:24 48.1 °F 26.6 °F 29.82 in South 5.8 mph 5.8 mph 43% 0.00 in
05:29 48.1 °F 26.6 °F 29.82 in SSW 6.0 mph 6.0 mph 43% 0.00 in
05:34 48.3 °F 26.8 °F 29.81 in South 6.9 mph 6.9 mph 43% 0.00 in
05:39 48.3 °F 26.8 °F 29.81 in SSE 4.6 mph 4.6 mph 43% 0.00 in
05:44 48.3 °F 26.8 °F 29.81 in South 5.8 mph 5.8 mph 43% 0.00 in
05:50 48.4 °F 26.9 °F 29.81 in South 6.0 mph 6.0 mph 43% 0.00 in
05:55 48.5 °F 27.0 °F 29.81 in SSE 4.0 mph 4.0 mph 43% 0.00 in
06:00 48.7 °F 26.6 °F 29.81 in South 5.8 mph 5.8 mph 42% 0.00 in
06:05 49.0 °F 26.9 °F 29.81 in SSW 3.5 mph 3.5 mph 42% 0.00 in
06:11 49.2 °F 27.1 °F 29.81 in SW 5.8 mph 5.8 mph 42% 0.00 in
06:16 49.2 °F 27.1 °F 29.81 in SSW 5.0 mph 5.8 mph 42% 0.00 in
06:21 49.2 °F 27.1 °F 29.81 in SW 6.9 mph 6.9 mph 42% 0.00 in
06:26 49.3 °F 27.2 °F 29.80 in SSE 6.9 mph 6.9 mph 42% 0.00 in
06:31 49.3 °F 27.2 °F 29.81 in SW 5.8 mph 5.8 mph 42% 0.00 in
06:36 49.3 °F 27.2 °F 29.80 in SSW 11.5 mph 11.5 mph 42% 0.00 in
06:42 49.2 °F 27.1 °F 29.81 in SSW 3.5 mph 3.5 mph 42% 0.00 in
06:47 49.2 °F 27.1 °F 29.80 in SW 5.8 mph 5.8 mph 42% 0.00 in
06:53 49.2 °F 27.1 °F 29.80 in SW 4.6 mph 4.7 mph 42% 0.00 in
06:58 49.2 °F 27.1 °F 29.80 in SSW 6.0 mph 6.0 mph 42% 0.00 in
07:03 49.3 °F 27.2 °F 29.80 in South 9.2 mph 9.2 mph 42% 0.00 in
07:08 49.3 °F 27.2 °F 29.80 in SSW 6.9 mph 6.9 mph 42% 0.00 in
07:13 49.3 °F 27.2 °F 29.80 in South 9.2 mph 9.2 mph 42% 0.00 in
07:18 49.3 °F 27.2 °F 29.80 in SSE 9.2 mph 9.2 mph 42% 0.00 in
07:23 49.3 °F 27.2 °F 29.80 in SE 9.2 mph 9.2 mph 42% 0.00 in
07:28 49.3 °F 27.2 °F 29.80 in SW 9.2 mph 9.2 mph 42% 0.00 in
07:33 49.2 °F 27.1 °F 29.80 in SW 9.2 mph 9.2 mph 42% 0.00 in
07:38 49.2 °F 27.1 °F 29.80 in WSW 8.1 mph 8.1 mph 42% 0.00 in
07:43 49.2 °F 27.1 °F 29.80 in WSW 4.6 mph 4.6 mph 42% 0.00 in
07:49 49.2 °F 27.1 °F 29.80 in SW 6.9 mph 6.9 mph 42% 0.00 in
07:54 49.4 °F 27.2 °F 29.80 in SSW 3.5 mph 3.5 mph 42% 0.00 in
07:59 49.5 °F 27.3 °F 29.80 in WSW 5.8 mph 5.8 mph 42% 0.00 in
08:04 49.6 °F 27.4 °F 29.80 in SW 7.0 mph 7.0 mph 42% 0.00 in
08:09 49.8 °F 27.0 °F 29.80 in SSW 9.2 mph 9.2 mph 41% 0.00 in
08:14 50.0 °F 27.8 °F 29.80 in SW 8.1 mph 8.1 mph 42% 0.00 in
08:19 50.2 °F 27.4 °F 29.80 in SW 11.5 mph 11.5 mph 41% 0.00 in
08:24 50.4 °F 27.6 °F 29.80 in SSW 10.4 mph 10.4 mph 41% 0.00 in
08:29 50.7 °F 27.2 °F 29.80 in SSW 9.2 mph 9.2 mph 40% 0.00 in
08:34 51.0 °F 27.5 °F 29.80 in SSE 8.1 mph 8.1 mph 40% 0.00 in
08:39 51.5 °F 27.9 °F 29.80 in SSW 15.0 mph 15.0 mph 40% 0.00 in
08:44 51.9 °F 28.3 °F 29.80 in SSW 9.2 mph 9.2 mph 40% 0.00 in
08:50 52.3 °F 28.1 °F 29.80 in SW 11.5 mph 11.5 mph 39% 0.00 in
08:55 52.8 °F 28.5 °F 29.79 in SSW 13.8 mph 13.8 mph 39% 0.00 in
09:01 53.3 °F 28.3 °F 29.80 in South 15.0 mph 15.0 mph 38% 0.00 in
09:06 53.6 °F 28.6 °F 29.80 in South 12.7 mph 12.7 mph 38% 0.00 in
09:11 54.1 °F 28.4 °F 29.80 in South 8.1 mph 8.1 mph 37% 0.00 in
09:16 54.5 °F 28.7 °F 29.80 in South 9.0 mph 9.0 mph 37% 0.00 in
09:21 54.8 °F 29.0 °F 29.80 in West 10.4 mph 10.4 mph 37% 0.00 in
09:27 55.1 °F 28.6 °F 29.79 in SW 11.5 mph 11.5 mph 36% 0.00 in
09:32 55.3 °F 28.8 °F 29.80 in SW 10.4 mph 10.4 mph 36% 0.00 in
09:37 55.4 °F 28.9 °F 29.80 in SSE 11.5 mph 11.5 mph 36% 0.00 in
09:42 55.5 °F 29.0 °F 29.80 in South 10.4 mph 10.4 mph 36% 0.00 in
09:47 55.8 °F 29.2 °F 29.79 in SSW 11.5 mph 11.5 mph 36% 0.00 in
09:52 56.2 °F 28.9 °F 29.79 in South 11.5 mph 11.5 mph 35% 0.00 in
09:57 56.5 °F 29.8 °F 29.79 in WSW 11.5 mph 11.5 mph 36% 0.00 in
10:02 57.0 °F 29.6 °F 29.79 in South 9.2 mph 9.2 mph 35% 0.00 in
10:08 57.4 °F 29.2 °F 29.79 in SW 12.7 mph 12.7 mph 34% 0.00 in
10:13 57.6 °F 29.4 °F 29.79 in WNW 12.7 mph 12.7 mph 34% 0.00 in
10:18 58.1 °F 29.8 °F 29.79 in SW 8.1 mph 8.1 mph 34% 0.00 in
10:23 58.3 °F 30.0 °F 29.79 in West 11.5 mph 11.5 mph 34% 0.00 in
10:28 58.8 °F 30.5 °F 29.79 in SSE 4.6 mph 4.6 mph 34% 0.00 in
10:33 59.4 °F 31.0 °F 29.79 in SSW 6.9 mph 6.9 mph 34% 0.00 in
10:38 59.9 °F 30.7 °F 29.79 in SW 6.9 mph 6.9 mph 33% 0.00 in
10:44 60.2 °F 31.7 °F 29.79 in WNW 2.3 mph 2.3 mph 34% 0.00 in
10:49 60.2 °F 31.0 °F 29.79 in SW 8.1 mph 8.1 mph 33% 0.00 in
10:54 60.3 °F 31.0 °F 29.79 in SSW 10.4 mph 10.4 mph 33% 0.00 in
11:00 60.7 °F 31.4 °F 29.79 in South 8.0 mph 8.0 mph 33% 0.00 in
11:05 60.8 °F 31.5 °F 29.79 in NNW 10.4 mph 10.4 mph 33% 0.00 in
11:10 61.2 °F 32.6 °F 29.79 in South 6.9 mph 6.9 mph 34% 0.00 in
11:15 62.1 °F 33.4 °F 29.79 in South 8.1 mph 8.1 mph 34% 0.00 in
11:20 62.8 °F 33.2 °F 29.79 in WSW 11.5 mph 11.5 mph 33% 0.00 in
11:26 63.4 °F 33.8 °F 29.79 in SSW 6.9 mph 6.9 mph 33% 0.00 in
11:31 63.6 °F 33.9 °F 29.79 in South 4.0 mph 5.0 mph 33% 0.00 in
11:36 64.1 °F 35.1 °F 29.79 in SSW 10.4 mph 10.4 mph 34% 0.00 in
11:41 64.5 °F 34.7 °F 29.78 in SSW 9.2 mph 9.2 mph 33% 0.00 in
11:46 64.6 °F 35.6 °F 29.78 in SSE 8.1 mph 8.1 mph 34% 0.00 in
11:51 65.5 °F 35.6 °F 29.78 in West 9.2 mph 9.2 mph 33% 0.00 in
11:56 65.9 °F 35.2 °F 29.78 in SW 8.1 mph 8.1 mph 32% 0.00 in
12:02 66.3 °F 35.5 °F 29.78 in WNW 7.0 mph 7.0 mph 32% 0.00 in
12:07 66.5 °F 35.7 °F 29.78 in West 11.5 mph 11.5 mph 32% 0.00 in
12:12 66.6 °F 35.8 °F 29.78 in WSW 8.1 mph 8.1 mph 32% 0.00 in
12:17 66.7 °F 35.9 °F 29.78 in SW 8.0 mph 8.0 mph 32% 0.00 in
12:22 67.1 °F 37.8 °F 29.77 in SW 5.0 mph 5.0 mph 34% 0.00 in
12:27 67.9 °F 36.9 °F 29.77 in SSW 6.9 mph 6.9 mph 32% 0.00 in
12:33 68.1 °F 37.9 °F 29.77 in West 7.0 mph 7.0 mph 33% 0.00 in
12:38 68.2 °F 37.2 °F 29.77 in SSE 8.1 mph 8.1 mph 32% 0.00 in
12:43 68.1 °F 37.1 °F 29.76 in SSW 8.1 mph 8.1 mph 32% 0.00 in
12:48 68.2 °F 36.4 °F 29.76 in WSW 6.9 mph 6.9 mph 31% 0.00 in
12:53 68.7 °F 36.8 °F 29.76 in SE 9.2 mph 9.2 mph 31% 0.00 in
12:58 69.2 °F 37.3 °F 29.76 in SW 6.9 mph 6.9 mph 31% 0.00 in
13:03 69.7 °F 37.7 °F 29.75 in SW 6.9 mph 6.9 mph 31% 0.00 in
13:08 70.1 °F 38.0 °F 29.75 in West 5.8 mph 5.8 mph 31% 0.00 in
13:13 70.6 °F 38.5 °F 29.75 in SSW 3.5 mph 3.5 mph 31% 0.00 in
13:18 70.8 °F 38.7 °F 29.75 in WNW 11.5 mph 11.5 mph 31% 0.00 in
13:23 70.8 °F 38.7 °F 29.74 in SSW 4.6 mph 4.6 mph 31% 0.00 in
13:28 70.6 °F 38.5 °F 29.74 in SSE 11.0 mph 11.0 mph 31% 0.00 in
13:33 70.2 °F 38.1 °F 29.74 in South 4.0 mph 4.0 mph 31% 0.00 in
13:38 71.0 °F 39.6 °F 29.73 in South 3.5 mph 3.5 mph 32% 0.00 in
13:44 71.3 °F 38.2 °F 29.73 in SSW 6.9 mph 6.9 mph 30% 0.00 in
13:49 71.5 °F 38.4 °F 29.73 in West 8.1 mph 8.1 mph 30% 0.00 in
13:54 71.9 °F 38.8 °F 29.72 in SSE 3.5 mph 3.5 mph 30% 0.00 in
13:59 71.7 °F 38.6 °F 29.72 in SSW 10.4 mph 10.4 mph 30% 0.00 in
14:05 72.0 °F 38.9 °F 29.72 in NNW 5.8 mph 5.8 mph 30% 0.00 in
14:10 72.9 °F 39.6 °F 29.71 in North 3.5 mph 3.5 mph 30% 0.00 in
14:15 73.2 °F 38.1 °F 29.71 in SW 11.5 mph 11.5 mph 28% 0.00 in
14:21 73.1 °F 38.0 °F 29.71 in SSW 10.4 mph 10.4 mph 28% 0.00 in
14:26 72.6 °F 37.6 °F 29.71 in South 15.0 mph 15.0 mph 28% 0.00 in
14:31 72.3 °F 37.4 °F 29.70 in SSW 9.2 mph 9.2 mph 28% 0.00 in
14:36 72.5 °F 38.4 °F 29.70 in South 11.5 mph 11.5 mph 29% 0.00 in
14:42 72.7 °F 37.7 °F 29.69 in West 5.8 mph 5.8 mph 28% 0.00 in
14:47 73.0 °F 38.9 °F 29.69 in SW 5.8 mph 5.8 mph 29% 0.00 in
14:52 73.3 °F 38.2 °F 29.69 in South 10.4 mph 10.4 mph 28% 0.00 in
14:57 73.2 °F 38.1 °F 29.69 in SSW 11.5 mph 11.5 mph 28% 0.00 in
15:02 72.8 °F 38.7 °F 29.68 in ESE 12.7 mph 12.7 mph 29% 0.00 in
15:07 72.8 °F 38.7 °F 29.68 in South 8.1 mph 8.1 mph 29% 0.00 in
15:12 73.1 °F 38.0 °F 29.68 in South 8.1 mph 8.1 mph 28% 0.00 in
15:18 73.2 °F 38.1 °F 29.68 in South 11.5 mph 11.5 mph 28% 0.00 in
15:23 73.3 °F 38.2 °F 29.68 in SSE 13.8 mph 13.8 mph 28% 0.00 in
15:28 73.5 °F 37.5 °F 29.67 in SSW 4.6 mph 5.0 mph 27% 0.00 in
15:33 73.9 °F 37.8 °F 29.67 in SSW 11.5 mph 11.5 mph 27% 0.00 in
15:38 74.0 °F 37.9 °F 29.67 in SSW 9.2 mph 9.2 mph 27% 0.00 in
15:43 74.1 °F 38.0 °F 29.67 in SSW 11.5 mph 11.5 mph 27% 0.00 in
15:48 73.9 °F 37.8 °F 29.66 in SSW 8.1 mph 8.1 mph 27% 0.00 in
15:54 74.0 °F 37.9 °F 29.66 in South 6.9 mph 8.5 mph 27% 0.00 in
15:59 73.7 °F 37.6 °F 29.66 in South 15.0 mph 15.0 mph 27% 0.00 in
16:04 74.0 °F 38.8 °F 29.66 in ESE 11.5 mph 11.5 mph 28% 0.00 in
16:09 74.1 °F 38.0 °F 29.66 in South 6.9 mph 6.9 mph 27% 0.00 in
16:14 74.1 °F 38.0 °F 29.65 in SE 8.1 mph 8.1 mph 27% 0.00 in
16:19 73.9 °F 37.8 °F 29.65 in SE 9.2 mph 9.2 mph 27% 0.00 in
16:25 74.0 °F 37.9 °F 29.65 in SE 12.0 mph 12.0 mph 27% 0.00 in
16:30 74.6 °F 38.4 °F 29.65 in South 9.2 mph 9.2 mph 27% 0.00 in
16:35 74.7 °F 37.5 °F 29.65 in SSW 16.1 mph 16.1 mph 26% 0.00 in
16:40 74.4 °F 37.3 °F 29.64 in SE 9.2 mph 9.2 mph 26% 0.00 in
16:45 74.7 °F 37.5 °F 29.64 in South 3.5 mph 4.2 mph 26% 0.00 in
16:50 74.9 °F 36.7 °F 29.64 in South 4.6 mph 6.4 mph 25% 0.00 in
16:55 75.2 °F 36.9 °F 29.64 in SSW 9.2 mph 9.2 mph 25% 0.00 in
17:00 75.3 °F 37.0 °F 29.64 in South 6.9 mph 6.9 mph 25% 0.00 in
17:05 74.8 °F 37.6 °F 29.64 in South 6.9 mph 6.9 mph 26% 0.00 in
17:10 74.7 °F 38.5 °F 29.64 in SE 7.0 mph 7.0 mph 27% 0.00 in
17:15 74.6 °F 38.4 °F 29.64 in South 12.7 mph 12.7 mph 27% 0.00 in
17:21 74.5 °F 38.3 °F 29.64 in SSE 10.0 mph 10.0 mph 27% 0.00 in
17:26 74.2 °F 37.1 °F 29.64 in SSE 11.5 mph 11.5 mph 26% 0.00 in
17:31 74.1 °F 37.0 °F 29.64 in SW 11.5 mph 11.5 mph 26% 0.00 in
17:36 74.2 °F 37.1 °F 29.64 in SSW 6.9 mph 6.9 mph 26% 0.00 in
17:41 74.2 °F 38.1 °F 29.64 in SSE 11.5 mph 11.5 mph 27% 0.00 in
17:47 74.1 °F 37.0 °F 29.64 in South 11.5 mph 11.5 mph 26% 0.00 in
17:52 73.9 °F 37.8 °F 29.64 in ESE 8.1 mph 8.1 mph 27% 0.00 in
17:57 73.9 °F 37.8 °F 29.64 in South 3.5 mph 3.5 mph 27% 0.00 in
18:02 73.6 °F 37.5 °F 29.64 in South 10.4 mph 10.4 mph 27% 0.00 in
18:07 73.3 °F 38.2 °F 29.64 in SSW 6.9 mph 6.9 mph 28% 0.00 in
18:12 73.2 °F 38.1 °F 29.64 in SSE 13.0 mph 13.0 mph 28% 0.00 in
18:18 72.8 °F 37.8 °F 29.64 in South 11.5 mph 11.5 mph 28% 0.00 in
18:23 72.6 °F 37.6 °F 29.64 in South 12.7 mph 12.7 mph 28% 0.00 in
18:28 72.4 °F 38.3 °F 29.64 in SSE 13.8 mph 13.8 mph 29% 0.00 in
18:33 72.2 °F 38.2 °F 29.64 in South 8.1 mph 8.1 mph 29% 0.00 in
18:38 72.2 °F 38.2 °F 29.64 in South 4.6 mph 4.6 mph 29% 0.00 in
18:43 72.1 °F 38.1 °F 29.64 in SSE 5.8 mph 5.8 mph 29% 0.00 in
18:48 71.9 °F 37.9 °F 29.64 in ESE 11.5 mph 11.5 mph 29% 0.00 in
18:54 71.5 °F 37.6 °F 29.64 in ESE 9.2 mph 9.2 mph 29% 0.00 in
18:59 71.3 °F 38.2 °F 29.64 in WSW 11.5 mph 11.5 mph 30% 0.00 in
19:04 71.0 °F 38.0 °F 29.65 in ESE 5.0 mph 5.0 mph 30% 0.00 in
19:09 70.7 °F 38.6 °F 29.64 in ESE 8.1 mph 8.1 mph 31% 0.00 in
19:14 70.5 °F 37.6 °F 29.65 in ESE 10.4 mph 10.4 mph 30% 0.00 in
19:20 70.3 °F 38.2 °F 29.65 in SSE 8.1 mph 8.1 mph 31% 0.00 in
19:25 70.1 °F 38.0 °F 29.65 in South 4.6 mph 4.6 mph 31% 0.00 in
19:30 69.9 °F 37.9 °F 29.65 in SSE 3.5 mph 3.5 mph 31% 0.00 in
19:35 69.6 °F 38.4 °F 29.65 in SE 5.8 mph 5.8 mph 32% 0.00 in
19:46 68.9 °F 38.6 °F 29.65 in SSE 8.1 mph 8.1 mph 33% 0.00 in
19:51 68.7 °F 38.4 °F 29.65 in SSE 4.6 mph 4.6 mph 33% 0.00 in
19:56 68.6 °F 38.3 °F 29.66 in SE 6.9 mph 6.9 mph 33% 0.00 in
20:01 68.3 °F 38.8 °F 29.66 in SSE 5.8 mph 5.8 mph 34% 0.00 in
20:06 68.1 °F 38.7 °F 29.66 in SSE 8.1 mph 8.1 mph 34% 0.00 in
20:11 67.9 °F 38.5 °F 29.66 in ESE 3.5 mph 3.5 mph 34% 0.00 in
20:17 67.6 °F 39.0 °F 29.66 in SSE 4.6 mph 4.6 mph 35% 0.00 in
20:22 67.4 °F 38.8 °F 29.66 in SE 6.9 mph 6.9 mph 35% 0.00 in
20:27 67.3 °F 38.7 °F 29.66 in SE 6.9 mph 6.9 mph 35% 0.00 in
20:32 67.2 °F 39.3 °F 29.66 in ESE 4.6 mph 4.6 mph 36% 0.00 in
20:37 67.0 °F 39.1 °F 29.66 in SSE 6.9 mph 6.9 mph 36% 0.00 in
20:42 67.0 °F 39.1 °F 29.66 in SE 8.1 mph 8.1 mph 36% 0.00 in
20:48 67.0 °F 39.1 °F 29.66 in SSE 4.6 mph 4.6 mph 36% 0.00 in
20:53 66.7 °F 39.6 °F 29.66 in SE 5.8 mph 5.8 mph 37% 0.00 in
20:58 66.6 °F 39.5 °F 29.66 in SE 7.0 mph 7.0 mph 37% 0.00 in
21:03 66.6 °F 39.5 °F 29.66 in SSE 6.9 mph 6.9 mph 37% 0.00 in
21:08 66.5 °F 39.4 °F 29.66 in ESE 3.5 mph 3.5 mph 37% 0.00 in
21:13 66.3 °F 39.9 °F 29.66 in ESE 4.6 mph 4.6 mph 38% 0.00 in
21:18 66.2 °F 39.8 °F 29.67 in ESE 6.9 mph 6.9 mph 38% 0.00 in
21:23 66.1 °F 39.7 °F 29.67 in SE 3.5 mph 3.5 mph 38% 0.00 in
21:28 65.9 °F 39.6 °F 29.67 in SSE 4.6 mph 4.6 mph 38% 0.00 in
21:33 65.8 °F 39.5 °F 29.67 in SSE 6.9 mph 6.9 mph 38% 0.00 in
21:39 65.8 °F 39.5 °F 29.68 in SE 3.5 mph 3.5 mph 38% 0.00 in
21:44 65.7 °F 40.1 °F 29.68 in SSE 6.9 mph 6.9 mph 39% 0.00 in
21:49 65.6 °F 40.0 °F 29.68 in SE 3.5 mph 3.6 mph 39% 0.00 in
21:54 65.4 °F 39.8 °F 29.68 in SE 3.5 mph 3.5 mph 39% 0.00 in
21:59 65.2 °F 39.6 °F 29.68 in SE 3.5 mph 3.5 mph 39% 0.00 in
22:04 65.1 °F 39.5 °F 29.68 in SE 3.5 mph 3.5 mph 39% 0.00 in
22:09 64.9 °F 39.3 °F 29.69 in ESE 3.5 mph 3.5 mph 39% 0.00 in
22:14 64.9 °F 39.3 °F 29.69 in SE 4.6 mph 4.6 mph 39% 0.00 in
22:20 64.9 °F 40.0 °F 29.69 in ESE 3.5 mph 3.5 mph 40% 0.00 in
22:25 64.9 °F 40.0 °F 29.69 in ESE 3.5 mph 3.5 mph 40% 0.00 in
22:30 64.9 °F 40.0 °F 29.69 in ESE 3.5 mph 3.5 mph 40% 0.00 in
22:35 64.7 °F 39.8 °F 29.69 in SE 3.5 mph 3.5 mph 40% 0.00 in
22:40 64.5 °F 39.6 °F 29.69 in SE 4.0 mph 4.0 mph 40% 0.00 in
22:45 64.3 °F 39.4 °F 29.69 in SE 3.5 mph 3.5 mph 40% 0.00 in
22:50 64.1 °F 39.3 °F 29.69 in SE 3.5 mph 3.5 mph 40% 0.00 in
22:56 63.9 °F 39.1 °F 29.69 in ESE 3.5 mph 3.5 mph 40% 0.00 in
23:01 63.7 °F 39.5 °F 29.69 in East 5.8 mph 5.8 mph 41% 0.00 in
23:06 63.5 °F 39.4 °F 29.69 in East 4.6 mph 4.6 mph 41% 0.00 in
23:11 63.3 °F 39.2 °F 29.69 in SSE 4.0 mph 4.0 mph 41% 0.00 in
23:16 63.3 °F 39.2 °F 29.69 in ESE 3.5 mph 3.5 mph 41% 0.00 in
23:21 63.2 °F 39.1 °F 29.69 in SE 4.0 mph 4.0 mph 41% 0.00 in
23:26 63.1 °F 38.4 °F 29.69 in ESE 5.8 mph 5.8 mph 40% 0.00 in
23:31 63.0 °F 38.3 °F 29.69 in SE 7.0 mph 7.0 mph 40% 0.00 in
23:37 62.9 °F 38.2 °F 29.69 in ENE 6.9 mph 6.9 mph 40% 0.00 in
23:42 62.7 °F 38.0 °F 29.70 in ESE 6.9 mph 6.9 mph 40% 0.00 in
23:47 62.5 °F 37.8 °F 29.70 in ESE 5.8 mph 5.8 mph 40% 0.00 in
23:52 62.2 °F 37.6 °F 29.70 in ESE 3.5 mph 3.5 mph 40% 0.00 in
23:57 62.0 °F 37.4 °F 29.70 in East 3.5 mph 3.5 mph 40% 0.00 in
Live Lenexa Weather
Compliments of Weather Underground - 1.75 mb